createdAt,value
2018-05-25T00:00:57.809Z,45.17
2018-05-25T00:03:23.699Z,42.50
2018-05-25T00:05:49.595Z,26.43
2018-05-25T00:08:15.498Z,25.10
2018-05-25T00:10:41.397Z,18.33
2018-05-25T00:13:07.328Z,13.10
2018-05-25T00:15:33.194Z,31.57
2018-05-25T00:17:59.094Z,10.83
2018-05-25T00:20:25.009Z,16.53
2018-05-25T00:22:50.916Z,15.30
2018-05-25T00:25:16.820Z,11.30
2018-05-25T00:27:42.689Z,10.73
2018-05-25T00:30:08.597Z,10.00
2018-05-25T00:32:34.487Z,13.17
2018-05-25T00:35:00.389Z,15.10
2018-05-25T00:37:26.276Z,7.63
2018-05-25T00:39:52.177Z,5.33
2018-05-25T00:42:18.066Z,4.27
2018-05-25T00:44:43.982Z,10.20
2018-05-25T00:47:09.881Z,4.80
2018-05-25T00:49:35.763Z,5.00
2018-05-25T00:52:01.706Z,6.77
2018-05-25T00:54:27.605Z,6.33
2018-05-25T00:56:53.621Z,6.83
2018-05-25T00:59:19.521Z,4.47
2018-05-25T01:01:45.421Z,8.90
2018-05-25T01:04:11.319Z,6.83
2018-05-25T01:06:37.161Z,7.90
2018-05-25T01:09:02.979Z,4.67
2018-05-25T01:11:28.771Z,5.57
2018-05-25T01:13:54.577Z,6.10
2018-05-25T01:16:20.357Z,6.23
2018-05-25T01:18:46.186Z,5.80
2018-05-25T01:21:11.969Z,7.33
2018-05-25T01:23:37.765Z,12.20
2018-05-25T01:26:03.598Z,6.87
2018-05-25T01:28:29.378Z,5.70
2018-05-25T01:30:55.182Z,8.77
2018-05-25T01:33:20.996Z,5.33
2018-05-25T01:35:46.787Z,6.50
2018-05-25T01:38:12.583Z,5.37
2018-05-25T01:40:38.385Z,6.50
2018-05-25T01:43:04.198Z,8.70
2018-05-25T01:45:29.977Z,6.90
2018-05-25T01:47:55.805Z,5.70
2018-05-25T01:50:21.591Z,12.27
2018-05-25T01:52:47.396Z,5.27
2018-05-25T01:55:13.181Z,9.10
2018-05-25T01:57:38.990Z,6.40
2018-05-25T02:00:04.805Z,5.03
2018-05-25T02:02:30.585Z,6.03
2018-05-25T02:04:56.380Z,8.13
2018-05-25T02:07:22.308Z,5.40
2018-05-25T02:09:48.090Z,8.93
2018-05-25T02:12:13.902Z,9.53
2018-05-25T02:14:39.712Z,10.23
2018-05-25T02:17:05.495Z,6.43
2018-05-25T02:19:31.302Z,6.50
2018-05-25T02:21:57.094Z,10.90
2018-05-25T02:24:22.890Z,8.57
2018-05-25T02:26:48.706Z,6.53
2018-05-25T02:29:14.497Z,7.90
2018-05-25T02:31:40.312Z,5.10
2018-05-25T02:34:06.105Z,5.00
2018-05-25T02:36:31.881Z,7.07
2018-05-25T02:38:57.677Z,8.20
2018-05-25T02:41:23.461Z,6.93
2018-05-25T02:43:49.569Z,5.80
2018-05-25T02:46:15.362Z,7.03
2018-05-25T02:48:41.183Z,5.83
2018-05-25T02:51:06.975Z,6.77
2018-05-25T02:53:32.769Z,6.40
2018-05-25T02:55:58.567Z,6.83
2018-05-25T02:58:24.406Z,10.93
2018-05-25T03:00:50.202Z,8.77
2018-05-25T03:03:16.025Z,9.77
2018-05-25T03:05:41.825Z,12.00
2018-05-25T03:08:07.618Z,9.33
2018-05-25T03:10:33.442Z,5.33
2018-05-25T03:12:59.285Z,6.17
2018-05-25T03:15:25.098Z,6.57
2018-05-25T03:17:50.892Z,5.60
2018-05-25T03:20:16.696Z,9.27
2018-05-25T03:22:42.649Z,10.23
2018-05-25T03:25:08.339Z,6.30
2018-05-25T03:27:34.140Z,9.67
2018-05-25T03:29:59.944Z,8.53
2018-05-25T03:32:25.840Z,8.87
2018-05-25T03:34:51.633Z,12.50
2018-05-25T03:37:17.428Z,6.10
2018-05-25T03:39:43.208Z,4.87
2018-05-25T03:42:09.020Z,7.80
2018-05-25T03:44:34.824Z,8.63
2018-05-25T03:47:00.618Z,8.10
2018-05-25T03:49:26.420Z,4.80
2018-05-25T03:51:52.231Z,7.37
2018-05-25T03:54:18.081Z,16.83
2018-05-25T03:56:43.864Z,8.20
2018-05-25T04:02:07.732Z,10.43
2018-05-25T04:04:33.538Z,5.07
2018-05-25T04:06:59.314Z,5.07
2018-05-25T04:09:25.133Z,9.23
2018-05-25T04:11:50.921Z,4.40
2018-05-25T04:14:16.726Z,7.13
2018-05-25T04:16:42.812Z,5.10
2018-05-25T04:19:08.615Z,5.37
2018-05-25T04:21:34.397Z,9.13
2018-05-25T04:24:00.217Z,6.70
2018-05-25T04:26:26.009Z,7.30
2018-05-25T04:28:51.806Z,8.67
2018-05-25T04:31:17.621Z,4.90
2018-05-25T04:33:43.401Z,6.50
2018-05-25T04:36:09.321Z,5.90
2018-05-25T04:38:35.115Z,6.70
2018-05-25T04:41:00.923Z,9.60
2018-05-25T04:43:26.733Z,7.50
2018-05-25T04:45:52.531Z,7.77
2018-05-25T04:48:18.318Z,6.13
2018-05-25T04:50:44.126Z,6.13
2018-05-25T04:53:09.951Z,5.00
2018-05-25T04:55:35.741Z,5.93
2018-05-25T04:58:01.521Z,8.63
2018-05-25T05:00:27.363Z,6.87
2018-05-25T05:02:53.174Z,6.60
2018-05-25T05:05:18.958Z,6.67
2018-05-25T05:07:44.766Z,9.90
2018-05-25T05:10:10.570Z,11.57
2018-05-25T05:12:36.369Z,6.17
2018-05-25T05:15:02.225Z,5.80
2018-05-25T05:17:28.038Z,7.03
2018-05-25T05:19:53.829Z,7.47
2018-05-25T05:22:19.624Z,7.67
2018-05-25T05:24:45.455Z,7.27
2018-05-25T05:27:11.254Z,6.73
2018-05-25T05:29:37.047Z,5.00
2018-05-25T05:32:02.873Z,7.67
2018-05-25T05:34:28.675Z,7.83
2018-05-25T05:36:54.475Z,9.57
2018-05-25T05:39:20.258Z,9.60
2018-05-25T05:41:46.066Z,5.20
2018-05-25T05:44:11.866Z,9.87
2018-05-25T05:46:37.673Z,18.03
2018-05-25T05:49:03.493Z,9.17
2018-05-25T05:51:29.296Z,6.00
2018-05-25T05:53:55.080Z,8.93
2018-05-25T05:56:20.886Z,6.03
2018-05-25T05:58:46.718Z,7.87
2018-05-25T06:01:12.525Z,10.93
2018-05-25T06:03:38.331Z,8.63
2018-05-25T06:06:04.130Z,5.53
2018-05-25T06:08:29.923Z,7.60
2018-05-25T06:10:56.087Z,13.70
2018-05-25T06:13:22.727Z,11.03
2018-05-25T06:15:48.585Z,6.93
2018-05-25T06:18:14.411Z,6.33
2018-05-25T06:20:40.204Z,12.00
2018-05-25T06:23:05.991Z,9.20
2018-05-25T06:25:31.905Z,5.37
2018-05-25T06:27:57.706Z,6.83
2018-05-25T06:30:23.505Z,7.63
2018-05-25T06:32:49.393Z,6.73
2018-05-25T06:35:15.215Z,10.30
2018-05-25T06:37:40.993Z,5.60
2018-05-25T06:40:06.797Z,9.37
2018-05-25T06:42:32.592Z,6.90
2018-05-25T06:44:58.386Z,16.23
2018-05-25T06:47:24.180Z,7.50
2018-05-25T06:49:50.306Z,13.50
2018-05-25T06:52:16.097Z,13.30
2018-05-25T06:54:41.898Z,15.73
2018-05-25T06:57:07.738Z,32.43
2018-05-25T06:59:33.520Z,13.73
2018-05-25T07:01:59.565Z,10.70
2018-05-25T07:04:25.881Z,10.73
2018-05-25T07:06:51.944Z,5.33
2018-05-25T07:09:18.206Z,11.23
2018-05-25T07:11:44.586Z,9.53
2018-05-25T07:14:10.846Z,7.63
2018-05-25T07:16:36.847Z,5.90
2018-05-25T07:19:02.658Z,5.93
2018-05-25T07:21:29.286Z,7.20
2018-05-25T07:23:55.139Z,8.67
2018-05-25T07:26:20.932Z,5.43
2018-05-25T07:28:53.773Z,7.27
2018-05-25T07:31:19.587Z,7.60
2018-05-25T07:33:45.397Z,10.07
2018-05-25T07:36:11.181Z,5.23
2018-05-25T07:38:36.965Z,14.53
2018-05-25T07:41:02.802Z,7.30
2018-05-25T07:43:28.596Z,6.33
2018-05-25T07:45:54.419Z,6.27
2018-05-25T07:48:20.203Z,7.50
2018-05-25T07:50:45.993Z,5.77
2018-05-25T07:53:12.159Z,5.07
2018-05-25T07:55:37.989Z,11.03
2018-05-25T07:58:03.781Z,8.90
2018-05-25T08:00:29.885Z,5.33
2018-05-25T08:02:55.691Z,9.77
2018-05-25T08:05:21.468Z,9.97
2018-05-25T08:07:47.245Z,6.07
2018-05-25T08:10:13.049Z,5.03
2018-05-25T08:12:38.834Z,7.23
2018-05-25T08:15:04.616Z,5.70
2018-05-25T08:17:30.436Z,5.07
2018-05-25T08:19:56.225Z,7.70
2018-05-25T08:22:22.013Z,4.83
2018-05-25T08:24:47.822Z,5.50
2018-05-25T08:27:14.133Z,6.77
2018-05-25T08:29:39.949Z,5.90
2018-05-25T08:32:05.755Z,5.47
2018-05-25T08:34:37.792Z,7.93
2018-05-25T08:37:03.585Z,8.87
2018-05-25T08:39:29.377Z,6.20
2018-05-25T08:41:55.185Z,10.13
2018-05-25T08:44:20.986Z,7.80
2018-05-25T08:46:46.794Z,10.97
2018-05-25T08:49:12.619Z,12.30
2018-05-25T08:51:38.409Z,11.70
2018-05-25T08:54:04.187Z,9.33
2018-05-25T08:56:29.974Z,8.80
2018-05-25T08:58:55.748Z,6.13
2018-05-25T09:01:21.814Z,9.30
2018-05-25T09:03:47.634Z,6.70
2018-05-25T09:06:13.426Z,6.60
2018-05-25T09:08:39.249Z,7.83
2018-05-25T09:11:05.054Z,8.30
2018-05-25T09:13:30.832Z,9.70
2018-05-25T09:15:56.643Z,7.40
2018-05-25T09:18:22.418Z,5.70
2018-05-25T09:20:48.230Z,8.17
2018-05-25T09:23:14.030Z,5.73
2018-05-25T09:25:39.843Z,8.27
2018-05-25T09:28:05.647Z,6.60
2018-05-25T09:30:31.506Z,5.90
2018-05-25T09:32:57.287Z,4.47
2018-05-25T09:35:23.082Z,6.10
2018-05-25T09:37:48.886Z,9.83
2018-05-25T09:40:14.761Z,5.27
2018-05-25T09:42:40.592Z,9.60
2018-05-25T09:45:06.564Z,4.13
2018-05-25T09:47:32.543Z,7.13
2018-05-25T09:49:59.361Z,3.87
2018-05-25T09:52:25.230Z,5.90
2018-05-25T09:54:51.105Z,7.80
2018-05-25T09:57:16.919Z,5.63
2018-05-25T09:59:42.745Z,6.73
2018-05-25T10:02:08.567Z,4.90
2018-05-25T10:04:34.364Z,7.40
2018-05-25T10:07:00.189Z,5.83
2018-05-25T10:09:25.993Z,8.40
2018-05-25T10:11:51.797Z,6.83
2018-05-25T10:14:17.597Z,5.53
2018-05-25T10:16:43.379Z,8.60
2018-05-25T10:19:09.191Z,4.80
2018-05-25T10:21:35.255Z,5.50
2018-05-25T10:24:01.055Z,9.80
2018-05-25T10:26:26.875Z,4.40
2018-05-25T10:28:52.702Z,4.33
2018-05-25T10:31:18.490Z,7.73
2018-05-25T10:33:44.284Z,10.20
2018-05-25T10:36:10.114Z,3.90
2018-05-25T10:38:35.921Z,4.10
2018-05-25T10:41:01.755Z,5.73
2018-05-25T10:43:27.845Z,4.63
2018-05-25T10:45:53.631Z,4.90
2018-05-25T10:48:19.415Z,5.47
2018-05-25T10:50:45.217Z,5.83
2018-05-25T10:53:11.016Z,10.83
2018-05-25T10:55:37.111Z,8.90
2018-05-25T10:58:02.918Z,7.60
2018-05-25T11:00:28.717Z,4.80
2018-05-25T11:02:54.771Z,7.63
2018-05-25T11:05:20.583Z,3.93
2018-05-25T11:07:46.401Z,6.20
2018-05-25T11:10:12.235Z,8.03
2018-05-25T11:12:38.026Z,6.63
2018-05-25T11:15:03.847Z,7.70
2018-05-25T11:17:29.997Z,6.13
2018-05-25T11:19:55.795Z,4.63
2018-05-25T11:22:21.624Z,6.40
2018-05-25T11:24:47.457Z,5.10
2018-05-25T11:27:13.254Z,4.00
2018-05-25T11:29:39.045Z,6.23
2018-05-25T11:32:04.903Z,5.00
2018-05-25T11:34:30.685Z,15.23
2018-05-25T11:36:56.497Z,3.40
2018-05-25T11:39:22.361Z,3.43
2018-05-25T11:41:48.161Z,10.00
2018-05-25T11:44:13.997Z,4.10
2018-05-25T11:46:39.811Z,9.47
2018-05-25T11:49:05.619Z,10.13
2018-05-25T11:51:31.431Z,8.53
2018-05-25T11:53:57.249Z,22.90
2018-05-25T11:56:23.046Z,18.20
2018-05-25T11:58:48.842Z,14.77
2018-05-25T12:01:14.829Z,8.03
2018-05-25T12:03:40.652Z,5.97
2018-05-25T12:06:06.492Z,10.67
2018-05-25T12:08:32.326Z,6.23
2018-05-25T12:10:58.115Z,9.60
2018-05-25T12:13:23.938Z,16.30
2018-05-25T12:15:50.065Z,5.27
2018-05-25T12:18:15.846Z,9.83
2018-05-25T12:20:41.660Z,7.50
2018-05-25T12:23:07.459Z,12.47
2018-05-25T12:25:33.253Z,8.70
2018-05-25T12:27:59.072Z,5.10
2018-05-25T12:30:24.889Z,7.23
2018-05-25T12:32:50.689Z,9.30
2018-05-25T12:35:16.491Z,8.50
2018-05-25T12:37:42.294Z,8.40
2018-05-25T12:40:08.094Z,25.30
2018-05-25T12:42:33.900Z,8.43
2018-05-25T12:45:11.897Z,9.67
2018-05-25T12:47:37.689Z,13.80
2018-05-25T12:50:03.521Z,9.77
2018-05-25T12:52:29.327Z,16.53
2018-05-25T12:54:55.188Z,11.17
2018-05-25T12:57:20.970Z,25.93
2018-05-25T12:59:46.784Z,19.93
2018-05-25T13:02:12.579Z,7.80
2018-05-25T13:04:38.374Z,8.37
2018-05-25T13:07:04.205Z,9.30
2018-05-25T13:09:30.005Z,12.33
2018-05-25T13:11:55.781Z,9.57
2018-05-25T13:14:21.584Z,5.03
2018-05-25T13:16:47.375Z,8.73
2018-05-25T13:19:13.160Z,5.57
2018-05-25T13:21:38.947Z,9.00
2018-05-25T13:24:04.754Z,14.10
2018-05-25T13:26:30.577Z,8.40
2018-05-25T13:28:56.354Z,9.23
2018-05-25T13:31:22.169Z,5.90
2018-05-25T13:33:47.961Z,7.63
2018-05-25T13:36:13.753Z,5.97
2018-05-25T13:38:40.049Z,26.93
2018-05-25T13:41:05.874Z,8.80
2018-05-25T13:43:31.680Z,6.27
2018-05-25T13:45:57.468Z,7.00
2018-05-25T13:48:23.265Z,10.73
2018-05-25T13:50:49.054Z,15.70
2018-05-25T13:53:14.902Z,26.67
2018-05-25T13:55:40.700Z,15.33
2018-05-25T13:58:06.481Z,8.47
2018-05-25T14:00:32.325Z,6.43
2018-05-25T14:02:58.114Z,14.67
2018-05-25T14:05:23.899Z,7.10
2018-05-25T14:07:49.972Z,8.60
2018-05-25T14:10:15.775Z,4.13
2018-05-25T14:12:41.580Z,5.57
2018-05-25T14:15:07.393Z,6.77
2018-05-25T14:17:33.315Z,5.97
2018-05-25T14:19:59.473Z,4.13
2018-05-25T14:22:25.261Z,3.60
2018-05-25T14:24:51.037Z,3.10
2018-05-25T14:27:16.852Z,8.03
2018-05-25T14:29:42.645Z,5.50
2018-05-25T14:32:08.458Z,5.43
2018-05-25T14:34:34.296Z,6.10
2018-05-25T14:37:00.102Z,7.40
2018-05-25T14:39:25.934Z,6.17
2018-05-25T14:41:51.775Z,4.50
2018-05-25T14:44:17.571Z,5.23
2018-05-25T14:46:43.361Z,9.67
2018-05-25T14:49:09.192Z,41.17
2018-05-25T14:51:35.123Z,11.87
2018-05-25T14:54:01.006Z,29.47
2018-05-25T14:56:26.761Z,23.87
2018-05-25T14:58:52.555Z,9.10
2018-05-25T15:01:18.347Z,6.80
2018-05-25T15:03:44.141Z,25.70
2018-05-25T15:06:09.957Z,4.87
2018-05-25T15:08:35.769Z,9.23
2018-05-25T15:11:02.051Z,8.53
2018-05-25T15:13:27.875Z,4.10
2018-05-25T15:15:53.699Z,8.03
2018-05-25T15:18:19.500Z,5.80
2018-05-25T15:20:45.306Z,4.43
2018-05-25T15:23:11.577Z,5.57
2018-05-25T15:25:37.380Z,15.60
2018-05-25T15:28:03.219Z,10.30
2018-05-25T15:30:29.666Z,6.37
2018-05-25T15:32:55.466Z,16.47
2018-05-25T15:35:21.366Z,7.97
2018-05-25T15:37:47.817Z,8.90
2018-05-25T15:40:13.617Z,9.33
2018-05-25T15:42:39.434Z,8.87
2018-05-25T15:45:05.634Z,5.67
2018-05-25T15:47:31.587Z,5.20
2018-05-25T15:49:57.451Z,4.93
2018-05-25T15:52:23.323Z,4.63
2018-05-25T15:54:49.122Z,6.83
2018-05-25T15:57:14.963Z,4.60
2018-05-25T15:59:40.818Z,4.23
2018-05-25T16:02:06.642Z,6.47
2018-05-25T16:04:32.458Z,7.10
2018-05-25T16:06:58.262Z,9.83
2018-05-25T16:09:24.081Z,20.23
2018-05-25T16:11:49.874Z,5.33
2018-05-25T16:14:15.697Z,8.80
2018-05-25T16:16:41.485Z,8.67
2018-05-25T16:19:07.269Z,4.40
2018-05-25T16:21:33.174Z,5.07
2018-05-25T16:23:58.990Z,7.10
2018-05-25T16:26:24.778Z,6.13
2018-05-25T16:28:50.645Z,10.43
2018-05-25T16:31:16.398Z,7.10
2018-05-25T16:33:42.177Z,4.23
2018-05-25T16:36:07.978Z,7.47
2018-05-25T16:38:33.793Z,4.80
2018-05-25T16:40:59.889Z,12.23
2018-05-25T16:43:25.814Z,7.80
2018-05-25T16:45:51.623Z,4.50
2018-05-25T16:48:17.476Z,3.13
2018-05-25T16:50:43.484Z,3.50
2018-05-25T16:53:09.291Z,5.17
2018-05-25T16:55:35.075Z,6.70
2018-05-25T16:58:00.874Z,2.50
2018-05-25T17:00:26.693Z,8.77
2018-05-25T17:02:52.474Z,5.10
2018-05-25T17:05:18.603Z,6.03
2018-05-25T17:07:44.409Z,10.03
2018-05-25T17:10:10.198Z,11.30
2018-05-25T17:12:36.076Z,23.47
2018-05-25T17:15:01.834Z,13.07
2018-05-25T17:17:27.633Z,8.80
2018-05-25T17:19:53.439Z,6.50
2018-05-25T17:22:19.238Z,4.23
2018-05-25T17:24:45.043Z,14.17
2018-05-25T17:27:10.854Z,4.10
2018-05-25T17:29:36.671Z,4.53
2018-05-25T17:32:02.470Z,2.63
2018-05-25T17:34:28.281Z,4.10
2018-05-25T17:36:54.071Z,2.23
2018-05-25T17:39:19.856Z,3.70
2018-05-25T17:41:45.662Z,10.97
2018-05-25T17:44:11.472Z,10.10
2018-05-25T17:46:37.264Z,15.87
2018-05-25T17:49:03.104Z,6.40
2018-05-25T17:51:29.255Z,7.10
2018-05-25T17:53:55.051Z,7.10
2018-05-25T17:56:20.841Z,11.00
2018-05-25T17:58:46.666Z,5.17
2018-05-25T18:01:12.445Z,3.10
2018-05-25T18:03:38.259Z,7.30
2018-05-25T18:06:04.065Z,9.17
2018-05-25T18:08:29.849Z,10.50
2018-05-25T18:10:55.666Z,7.07
2018-05-25T18:13:21.460Z,7.93
2018-05-25T18:15:47.263Z,10.77
2018-05-25T18:18:13.097Z,14.77
2018-05-25T18:20:38.919Z,20.63
2018-05-25T18:23:04.717Z,53.30
2018-05-25T18:25:30.531Z,64.67
2018-05-25T18:27:56.327Z,57.20
2018-05-25T18:30:22.129Z,11.10
2018-05-25T18:32:47.945Z,7.80
2018-05-25T18:35:13.741Z,21.83
2018-05-25T18:37:39.518Z,33.47
2018-05-25T18:40:05.302Z,7.00
2018-05-25T18:42:31.446Z,6.60
2018-05-25T18:44:57.279Z,22.10
2018-05-25T18:47:23.065Z,24.23
2018-05-25T18:49:48.857Z,12.53
2018-05-25T18:52:14.645Z,39.87
2018-05-25T18:54:40.443Z,101.93
2018-05-25T18:57:06.282Z,13.97
2018-05-25T18:59:32.077Z,25.67
2018-05-25T19:01:57.890Z,7.30
2018-05-25T19:04:23.690Z,5.90
2018-05-25T19:06:49.485Z,9.90
2018-05-25T19:09:15.281Z,8.77
2018-05-25T19:11:41.119Z,9.00
2018-05-25T19:14:06.905Z,38.70
2018-05-25T19:16:32.704Z,38.07
2018-05-25T19:18:58.521Z,89.67
2018-05-25T19:21:24.298Z,11.80
2018-05-25T19:23:50.081Z,11.30
2018-05-25T19:26:15.889Z,11.60
2018-05-25T19:28:41.699Z,5.40
2018-05-25T19:31:07.589Z,8.50
2018-05-25T19:33:33.385Z,6.83
2018-05-25T19:35:59.163Z,7.73
2018-05-25T19:38:24.994Z,7.53
2018-05-25T19:40:50.792Z,9.10
2018-05-25T19:45:54.552Z,4.70
2018-05-25T19:48:20.355Z,8.87
2018-05-25T19:50:46.146Z,14.63
2018-05-25T19:53:12.158Z,18.03
2018-05-25T19:55:37.940Z,9.83
2018-05-25T19:58:03.757Z,12.93
2018-05-25T20:00:29.585Z,10.30
2018-05-25T20:02:55.366Z,14.17
2018-05-25T20:05:21.173Z,4.67
2018-05-25T20:07:47.273Z,5.40
2018-05-25T20:10:13.068Z,9.13
2018-05-25T20:12:38.867Z,14.43
2018-05-25T20:15:04.698Z,5.27
2018-05-25T20:17:30.515Z,10.67
2018-05-25T20:19:56.294Z,11.50
2018-05-25T20:22:22.135Z,9.10
2018-05-25T20:24:47.923Z,9.83
2018-05-25T20:27:13.702Z,13.47
2018-05-25T20:29:39.519Z,16.30
2018-05-25T20:32:05.304Z,5.20
2018-05-25T20:34:31.085Z,6.50
2018-05-25T20:36:57.651Z,10.37
2018-05-25T20:39:23.435Z,8.20
2018-05-25T20:41:49.236Z,12.77
2018-05-25T20:44:15.073Z,4.63
2018-05-25T20:46:40.861Z,5.80
2018-05-25T20:49:06.678Z,8.87
2018-05-25T20:51:32.470Z,5.63
2018-05-25T20:53:58.279Z,7.10
2018-05-25T20:56:24.059Z,10.60
2018-05-25T20:58:49.857Z,53.97
2018-05-25T21:01:15.641Z,49.53
2018-05-25T21:03:41.446Z,64.23
2018-05-25T21:06:07.239Z,5.70
2018-05-25T21:08:33.058Z,7.80
2018-05-25T21:10:58.873Z,104.50
2018-05-25T21:13:24.674Z,37.70
2018-05-25T21:15:50.494Z,40.80
2018-05-25T21:18:16.282Z,70.93
2018-05-25T21:20:42.091Z,16.43
2018-05-25T21:23:07.877Z,10.80
2018-05-25T21:25:33.678Z,6.83
2018-05-25T21:27:59.490Z,19.33
2018-05-25T21:30:25.275Z,17.90
2018-05-25T21:32:51.096Z,20.93
2018-05-25T21:35:16.934Z,18.77
2018-05-25T21:37:42.721Z,24.67
2018-05-25T21:40:08.529Z,16.57
2018-05-25T21:42:34.318Z,17.73
2018-05-25T21:45:00.123Z,25.60
2018-05-25T21:47:25.926Z,82.13
2018-05-25T21:49:51.746Z,50.13
2018-05-25T21:52:17.548Z,61.50
2018-05-25T21:54:43.335Z,35.43
2018-05-25T21:57:09.148Z,30.60
2018-05-25T21:59:34.934Z,55.20
2018-05-25T22:02:00.735Z,23.33
2018-05-25T22:04:26.667Z,41.57
2018-05-25T22:06:52.581Z,54.20
2018-05-25T22:09:18.375Z,15.30
2018-05-25T22:11:44.213Z,13.93
2018-05-25T22:14:09.994Z,7.97
2018-05-25T22:16:35.872Z,9.17
2018-05-25T22:19:01.585Z,9.10
2018-05-25T22:21:27.494Z,11.70
2018-05-25T22:23:53.295Z,11.47
2018-05-25T22:26:19.085Z,15.87
2018-05-25T22:28:44.926Z,10.30
2018-05-25T22:31:10.736Z,9.80
2018-05-25T22:33:36.518Z,7.33
2018-05-25T22:36:02.325Z,9.23
2018-05-25T22:38:28.109Z,13.60
2018-05-25T22:40:53.908Z,11.10
2018-05-25T22:43:32.256Z,20.87
2018-05-25T22:46:10.330Z,12.20
2018-05-25T22:48:48.537Z,16.47
2018-05-25T22:51:26.623Z,11.33
2018-05-25T22:53:58.460Z,13.17
2018-05-25T22:56:24.275Z,11.30
2018-05-25T22:58:50.069Z,10.30
2018-05-25T23:01:15.878Z,11.20
2018-05-25T23:03:41.685Z,16.77
2018-05-25T23:06:07.477Z,13.40
2018-05-25T23:08:33.318Z,12.00
2018-05-25T23:10:59.530Z,13.00
2018-05-25T23:13:25.686Z,17.93
2018-05-25T23:15:51.533Z,12.40
2018-05-25T23:18:17.305Z,24.10
2018-05-25T23:20:43.313Z,13.53
2018-05-25T23:23:09.154Z,29.13
2018-05-25T23:25:34.950Z,84.50
2018-05-25T23:28:00.741Z,94.90
2018-05-25T23:30:26.530Z,45.33
2018-05-25T23:32:52.340Z,22.30
2018-05-25T23:35:18.154Z,40.67
2018-05-25T23:37:43.973Z,34.83
2018-05-25T23:40:09.755Z,83.87
2018-05-25T23:42:36.318Z,44.33
2018-05-25T23:45:02.131Z,102.53
2018-05-25T23:47:28.221Z,42.10
2018-05-25T23:49:54.004Z,92.47
2018-05-25T23:52:20.014Z,31.83
2018-05-25T23:54:45.814Z,55.80
2018-05-25T23:57:11.605Z,122.77
2018-05-25T23:59:37.574Z,134.83
